.
WxDataArchive / Data Records for 2012-02-26
2012-02-25 February 2012 2012-02-27

Data Records for Sunday, 26 February 2012

Time	Temp	Chill	HIndex	Humid	Dewpt	 Wind 	HiWind	WindDir	Rain 	Barom 
-----	----	-----	------	-----	-----	------	------	-------	-----	----- 
00:00	25.0	25.0	25.0	70	16.6	0	1	248	0.00	30.363 
00:05	24.8	24.8	24.8	70	16.4	0	0	---	0.00	30.363 
00:10	24.7	24.7	24.7	71	16.7	0	1	248	0.00	30.363 
00:15	24.7	24.7	24.7	71	16.7	0	1	248	0.00	30.366 
00:20	24.5	24.5	24.5	71	16.5	0	0	---	0.00	30.366 
00:25	24.4	24.4	24.4	71	16.4	0	0	---	0.00	30.366 
00:30	24.1	24.1	24.1	71	16.1	0	1	248	0.00	30.367 
00:35	23.9	23.9	23.9	72	16.2	0	0	---	0.00	30.367 
00:40	23.8	23.8	23.8	73	16.4	0	0	---	0.00	30.367 
00:45	23.6	23.6	23.6	73	16.2	0	0	---	0.00	30.373 
00:50	23.3	23.3	23.3	73	15.9	0	0	---	0.00	30.373 
00:55	23.2	23.2	23.2	73	15.9	0	0	---	0.00	30.373 
01:00	22.9	22.9	22.9	73	15.6	0	0	---	0.00	30.381 
01:05	22.7	22.7	22.7	74	15.7	0	0	---	0.00	30.381 
01:10	22.4	22.4	22.4	75	15.7	0	0	---	0.00	30.381 
01:15	22.2	22.2	22.2	75	15.5	0	0	---	0.00	30.381 
01:20	21.9	21.9	21.9	75	15.2	0	0	---	0.00	30.381 
01:25	21.6	21.6	21.6	76	15.2	0	0	---	0.00	30.381 
01:30	21.3	21.3	21.3	76	14.9	0	0	---	0.00	30.384 
01:35	21.1	21.1	21.1	77	15.0	0	0	---	0.00	30.384 
01:40	21.0	21.0	21.0	78	15.2	0	0	---	0.00	30.384 
01:45	20.8	20.8	20.8	78	15.0	0	0	---	0.00	30.380 
01:50	20.6	20.6	20.6	79	15.1	0	0	---	0.00	30.380 
01:55	20.5	20.5	20.5	79	15.0	0	0	---	0.00	30.380 
02:00	20.3	20.3	20.3	79	14.8	0	0	---	0.00	30.379 
02:05	20.3	20.3	20.3	80	15.1	0	0	---	0.00	30.379 
02:10	20.2	20.2	20.2	81	15.3	0	0	---	0.00	30.379 
02:15	20.0	20.0	20.0	81	15.1	0	0	---	0.00	30.385 
02:20	19.9	19.9	19.9	81	15.0	0	0	---	0.00	30.385 
02:25	19.7	19.7	19.7	81	14.8	0	0	---	0.00	30.385 
02:30	19.5	19.5	19.5	81	14.6	0	0	---	0.00	30.384 
02:35	19.4	19.4	19.4	82	14.8	0	0	---	0.00	30.384 
02:40	19.4	19.4	19.4	82	14.8	0	0	---	0.00	30.384 
02:45	19.2	19.2	19.2	83	14.9	0	0	---	0.00	30.385 
02:50	19.2	19.2	19.2	83	14.9	0	0	---	0.00	30.385 
02:55	19.1	19.1	19.1	83	14.8	0	0	---	0.00	30.385 
03:00	19.1	19.1	19.1	83	14.8	0	0	---	0.00	30.385 
03:05	18.9	18.9	18.9	83	14.6	0	0	---	0.00	30.385 
03:10	18.8	18.8	18.8	84	14.8	0	0	---	0.00	30.385 
03:15	18.8	18.8	18.8	84	14.8	0	0	---	0.00	30.388 
03:20	18.6	18.6	18.6	84	14.6	0	0	---	0.00	30.388 
03:25	18.6	18.6	18.6	85	14.9	0	0	---	0.00	30.388 
03:30	18.6	18.6	18.6	85	14.9	0	0	---	0.00	30.384 
03:35	18.6	18.6	18.6	85	14.9	0	0	---	0.00	30.384 
03:40	18.4	18.4	18.4	85	14.7	0	0	---	0.00	30.384 
03:45	18.4	18.4	18.4	85	14.7	0	0	---	0.00	30.385 
03:50	18.3	18.3	18.3	85	14.6	0	0	---	0.00	30.385 
03:55	18.1	18.1	18.1	85	14.4	0	0	---	0.00	30.385 
04:00	18.1	18.1	18.1	85	14.4	0	0	---	0.00	30.386 
04:05	18.0	18.0	18.0	85	14.3	0	0	---	0.00	30.386 
04:10	18.0	18.0	18.0	85	14.3	0	0	---	0.00	30.386 
04:15	17.8	17.8	17.8	85	14.1	0	0	---	0.00	30.389 
04:20	17.8	17.8	17.8	86	14.3	0	0	---	0.00	30.389 
04:25	17.8	17.8	17.8	86	14.3	0	0	---	0.00	30.389 
04:30	17.8	17.8	17.8	86	14.3	0	0	---	0.00	30.388 
04:35	17.8	17.8	17.8	86	14.3	0	0	---	0.00	30.388 
04:40	17.7	17.7	17.7	86	14.2	0	0	---	0.00	30.388 
04:45	17.7	17.7	17.7	86	14.2	0	0	---	0.00	30.391 
04:50	17.5	17.5	17.5	86	14.0	0	0	---	0.00	30.391 
04:55	17.5	17.5	17.5	86	14.0	0	0	---	0.00	30.391 
05:00	17.5	17.5	17.5	86	14.0	0	0	---	0.00	30.396 
05:05	17.5	17.5	17.5	87	14.3	0	0	---	0.00	30.396 
05:10	17.7	17.7	17.7	87	14.5	0	0	---	0.00	30.396 
05:15	17.7	17.7	17.7	87	14.5	0	0	---	0.00	30.404 
05:20	17.7	17.7	17.7	87	14.5	0	0	---	0.00	30.404 
05:25	17.7	17.7	17.7	87	14.5	0	0	---	0.00	30.404 
05:30	17.7	17.7	17.7	87	14.5	0	0	---	0.00	30.404 
05:35	17.8	17.8	17.8	87	14.6	0	0	---	0.00	30.404 
05:40	18.0	18.0	18.0	88	15.1	0	0	---	0.00	30.404 
05:45	18.3	18.3	18.3	88	15.4	0	0	---	0.00	30.405 
05:50	18.4	18.4	18.4	88	15.5	0	0	---	0.00	30.405 
05:55	18.4	18.4	18.4	88	15.5	0	0	---	0.00	30.405 
06:00	18.4	18.4	18.4	88	15.5	0	0	---	0.00	30.406 
06:05	18.4	18.4	18.4	88	15.5	0	0	---	0.00	30.406 
06:10	18.3	18.3	18.3	88	15.4	0	0	---	0.00	30.406 
06:15	18.3	18.3	18.3	88	15.4	0	0	---	0.00	30.410 
06:20	18.3	18.3	18.3	88	15.4	0	1	248	0.00	30.410 
06:25	18.6	18.6	18.6	88	15.6	0	1	248	0.00	30.410 
06:30	18.6	18.6	18.6	88	15.6	0	0	---	0.00	30.408 
06:35	18.8	18.8	18.8	88	15.8	0	0	---	0.00	30.408 
06:40	18.8	18.8	18.8	88	15.8	0	0	---	0.00	30.408 
06:45	18.8	18.8	18.8	88	15.8	0	0	---	0.00	30.412 
06:50	18.6	18.6	18.6	88	15.6	0	0	---	0.00	30.412 
06:55	18.4	18.4	18.4	88	15.5	0	0	---	0.00	30.412 
07:00	18.4	18.4	18.4	88	15.5	0	0	---	0.00	30.418 
07:05	18.3	18.3	18.3	88	15.4	0	0	---	0.00	30.418 
07:10	18.1	18.1	18.1	87	14.9	0	0	---	0.00	30.418 
07:15	18.1	18.1	18.1	88	15.2	0	1	248	0.00	30.412 
07:20	18.1	18.1	18.1	88	15.2	0	0	---	0.00	30.412 
07:25	18.3	18.3	18.3	88	15.4	0	0	---	0.00	30.412 
07:30	18.6	18.6	18.6	88	15.6	0	0	---	0.00	30.414 
07:35	19.1	19.1	19.1	88	16.1	0	1	248	0.00	30.414 
07:40	19.4	19.4	19.4	88	16.4	0	1	248	0.00	30.414 
07:45	20.0	20.0	20.0	88	17.0	0	1	248	0.00	30.420 
07:50	20.5	20.5	20.5	88	17.5	0	1	248	0.00	30.420 
07:55	21.0	21.0	21.0	88	18.0	0	1	248	0.00	30.420 
08:00	21.4	21.4	21.4	87	18.1	0	1	248	0.00	30.420 
08:05	21.8	21.8	21.8	87	18.5	0	2	248	0.00	30.420 
08:10	22.2	22.2	22.2	86	18.7	0	2	135	0.00	30.420 
08:15	22.5	22.5	22.5	84	18.4	0	2	135	0.00	30.421 
08:20	23.0	23.0	23.0	83	18.6	1	5	135	0.00	30.421 
08:25	23.3	23.3	23.3	82	18.6	1	3	135	0.00	30.421 
08:30	23.8	23.8	23.8	81	18.8	0	2	135	0.00	30.416 
08:35	24.4	24.4	24.4	80	19.1	0	2	135	0.00	30.416 
08:40	24.8	24.8	24.8	79	19.2	0	3	135	0.00	30.416 
08:45	25.4	25.4	25.4	77	19.2	1	3	90	0.00	30.416 
08:50	26.0	26.0	26.0	75	19.2	1	3	90	0.00	30.416 
08:55	26.4	26.4	26.4	73	18.9	1	4	90	0.00	30.416 
09:00	27.0	27.0	27.0	72	19.2	1	3	112	0.00	30.412 
09:05	27.6	27.6	27.6	71	19.4	1	4	112	0.00	30.412 
09:10	28.1	28.1	28.1	69	19.3	1	3	90	0.00	30.412 
09:15	28.2	28.2	28.2	68	19.0	2	6	90	0.00	30.396 
09:20	28.7	28.7	28.7	68	19.5	2	7	68	0.00	30.396 
09:25	29.1	29.1	29.1	66	19.2	3	6	90	0.00	30.396 
09:30	29.5	29.5	29.5	65	19.2	2	5	90	0.00	30.392 
09:35	30.1	30.1	30.1	65	19.8	1	6	90	0.00	30.392 
09:40	30.6	30.6	30.6	64	19.9	1	5	90	0.00	30.392 
09:45	30.7	30.7	30.7	61	18.9	3	6	112	0.00	30.391 
09:50	31.0	31.0	31.0	61	19.1	2	7	90	0.00	30.391 
09:55	31.2	31.2	31.2	61	19.3	3	7	90	0.00	30.391 
10:00	31.3	31.3	31.3	60	19.0	3	7	90	0.00	30.379 
10:05	31.6	31.6	31.6	60	19.3	2	10	90	0.00	30.379 
10:10	31.9	31.9	31.9	60	19.6	2	6	90	0.00	30.379 
10:15	32.2	32.2	32.2	59	19.5	2	7	90	0.00	30.378 
10:20	32.5	32.5	32.5	58	19.4	3	7	112	0.00	30.378 
10:25	32.8	32.8	32.8	57	19.3	3	6	90	0.00	30.378 
10:30	32.9	32.9	32.9	58	19.8	2	9	90	0.00	30.368 
10:35	33.1	33.1	33.1	56	19.1	3	10	90	0.00	30.368 
10:40	33.2	33.2	33.2	56	19.2	3	10	90	0.00	30.368 
10:45	33.5	33.5	33.5	56	19.5	3	9	90	0.00	30.356 
10:50	33.8	30.2	33.8	56	19.8	4	7	90	0.00	30.356 
10:55	34.0	30.4	34.0	55	19.6	4	9	90	0.00	30.356 
11:00	34.1	34.1	34.1	55	19.6	3	7	90	0.00	30.342 
11:05	34.1	34.1	34.1	55	19.6	3	7	90	0.00	30.342 
11:10	34.4	30.8	34.4	55	19.9	4	14	90	0.00	30.342 
11:15	34.6	30.1	34.6	54	19.7	5	14	90	0.00	30.330 
11:20	34.9	34.9	34.9	54	20.0	3	9	90	0.00	30.330 
11:25	35.2	31.8	35.2	54	20.2	4	9	112	0.00	30.330 
11:30	35.3	35.3	35.3	56	21.2	3	10	90	0.00	30.326 
11:35	35.6	32.2	35.6	53	20.2	4	11	90	0.00	30.326 
11:40	35.6	32.2	35.6	53	20.2	4	11	90	0.00	30.326 
11:45	35.8	32.5	35.8	53	20.4	4	12	68	0.00	30.323 
11:50	35.8	35.8	35.8	53	20.4	3	9	90	0.00	30.323 
11:55	36.0	36.0	36.0	54	21.0	3	9	90	0.00	30.323 
12:00	36.5	36.5	36.5	51	20.1	3	7	112	0.00	30.323 
12:05	36.8	36.8	36.8	52	20.8	3	10	90	0.00	30.323 
12:10	36.9	36.9	36.9	51	20.5	3	9	90	0.00	30.323 
12:15	37.2	37.2	37.2	53	21.7	2	5	112	0.00	30.315 
12:20	37.3	37.3	37.3	52	21.3	3	7	90	0.00	30.315 
12:25	37.3	34.2	37.3	51	20.9	4	9	90	0.00	30.315 
12:30	37.3	37.3	37.3	52	21.3	3	10	90	0.00	30.309 
12:35	37.3	37.3	37.3	53	21.8	3	12	90	0.00	30.309 
12:40	37.9	37.9	37.9	51	21.4	2	6	90	0.00	30.309 
12:45	38.0	38.0	38.0	50	21.0	3	7	90	0.00	30.301 
12:50	38.5	38.5	38.5	52	22.4	2	7	112	0.00	30.301 
12:55	38.8	38.8	38.8	50	21.8	2	7	90	0.00	30.301 
13:00	38.9	38.9	38.9	50	21.9	3	7	90	0.00	30.287 
13:05	38.9	38.9	38.9	51	22.3	2	9	248	0.00	30.287 
13:10	38.9	38.9	38.9	53	23.2	2	6	90	0.00	30.287 
13:15	39.1	39.1	39.1	50	22.0	3	6	90	0.00	30.282 
13:20	39.2	39.2	39.2	49	21.7	3	7	90	0.00	30.282 
13:25	39.3	39.3	39.3	50	22.2	3	8	90	0.00	30.282 
13:30	39.5	39.5	39.5	51	22.9	3	9	90	0.00	30.276 
13:35	39.6	39.6	39.6	52	23.4	3	11	90	0.00	30.276 
13:40	39.9	39.9	39.9	50	22.8	3	8	90	0.00	30.276 
13:45	40.2	40.2	40.2	51	23.5	3	10	90	0.00	30.266 
13:50	40.3	40.3	40.3	49	22.7	3	12	90	0.00	30.266 
13:55	40.3	37.7	40.3	50	23.2	4	14	90	0.00	30.266 
14:00	40.5	40.5	40.5	48	22.4	3	7	90	0.00	30.263 
14:05	40.5	40.5	40.5	50	23.3	3	8	90	0.00	30.263 
14:10	40.9	40.9	40.9	50	23.7	3	7	112	0.00	30.263 
14:15	40.9	40.9	40.9	50	23.7	3	7	112	0.00	30.252 
14:20	40.9	40.9	40.9	50	23.7	3	9	90	0.00	30.252 
14:25	41.2	41.2	41.2	52	24.9	3	8	90	0.00	30.252 
14:30	41.6	41.6	41.6	52	25.3	2	4	112	0.00	30.236 
14:35	41.9	41.9	41.9	51	25.1	2	6	112	0.00	30.236 
14:40	41.9	41.9	41.9	50	24.6	3	9	90	0.00	30.236 
14:45	42.2	42.2	42.2	50	24.9	3	10	90	0.00	30.231 
14:50	42.2	42.2	42.2	49	24.4	3	12	90	0.00	30.231 
14:55	42.2	39.9	42.2	48	23.9	4	11	112	0.00	30.231 
15:00	42.1	39.7	42.1	49	24.3	4	10	90	0.00	30.217 
15:05	42.2	42.2	42.2	50	24.9	3	11	112	0.00	30.217 
15:10	42.5	40.2	42.5	49	24.7	4	15	112	0.00	30.217 
15:15	42.8	40.6	42.8	48	24.5	4	10	90	0.00	30.209 
15:20	42.9	42.9	42.9	48	24.6	3	7	90	0.00	30.209 
15:25	43.1	40.9	43.1	47	24.3	4	10	90	0.00	30.209 
15:30	43.2	43.2	43.2	48	24.9	3	7	90	0.00	30.203 
15:35	43.3	40.3	43.3	45	23.4	5	11	90	0.00	30.203 
15:40	43.3	43.3	43.3	45	23.4	3	11	90	0.00	30.203 
15:45	43.6	41.5	43.6	46	24.2	4	13	68	0.00	30.197 
15:50	43.8	41.7	43.8	45	23.9	4	9	90	0.00	30.197 
15:55	43.8	43.8	43.8	46	24.4	3	9	90	0.00	30.197 
16:00	44.1	44.1	44.1	46	24.7	2	6	90	0.00	30.188 
16:05	44.2	44.2	44.2	44	23.7	3	6	112	0.00	30.188 
16:10	44.2	44.2	44.2	45	24.2	3	7	112	0.00	30.188 
16:15	44.3	44.3	44.3	44	23.8	3	7	90	0.00	30.180 
16:20	44.2	42.2	44.2	44	23.7	4	12	90	0.00	30.180 
16:25	44.2	44.2	44.2	44	23.7	3	10	90	0.00	30.180 
16:30	44.2	42.2	44.2	44	23.7	4	9	90	0.00	30.175 
16:35	44.3	44.3	44.3	44	23.8	3	9	90	0.00	30.175 
16:40	44.2	44.2	44.2	45	24.2	3	9	90	0.00	30.175 
16:45	44.3	44.3	44.3	46	24.8	3	6	90	0.00	30.167 
16:50	44.5	41.8	44.5	44	24.0	5	13	90	0.00	30.167 
16:55	44.5	44.5	44.5	45	24.5	3	6	90	0.00	30.167 
17:00	44.5	42.5	44.5	44	24.0	4	9	90	0.00	30.162 
17:05	44.6	44.6	44.6	43	23.5	3	9	90	0.00	30.162 
17:10	44.6	44.6	44.6	44	24.1	3	11	112	0.00	30.162 
17:15	44.6	44.6	44.6	43	23.5	2	10	90	0.00	30.159 
17:20	44.6	44.6	44.6	43	23.5	3	7	90	0.00	30.159 
17:25	44.6	44.6	44.6	43	23.5	3	9	90	0.00	30.159 
17:30	44.6	44.6	44.6	42	22.9	2	6	112	0.00	30.164 
17:35	44.6	44.6	44.6	42	22.9	2	6	112	0.00	30.164 
17:40	44.5	44.5	44.5	43	23.4	2	6	112	0.00	30.164 
17:45	44.5	44.5	44.5	43	23.4	2	6	90	0.00	30.161 
17:50	44.5	44.5	44.5	43	23.4	3	7	90	0.00	30.161 
17:55	44.5	44.5	44.5	43	23.4	2	5	90	0.00	30.161 
18:00	44.3	44.3	44.3	43	23.2	2	5	90	0.00	30.152 
18:05	44.2	44.2	44.2	43	23.1	2	10	90	0.00	30.152 
18:10	44.1	44.1	44.1	43	23.0	2	6	112	0.00	30.152 
18:15	43.9	43.9	43.9	43	22.9	3	6	90	0.00	30.147 
18:20	43.6	43.6	43.6	43	22.6	2	7	90	0.00	30.147 
18:25	43.5	43.5	43.5	44	23.1	2	5	135	0.00	30.147 
18:30	43.2	43.2	43.2	45	23.3	2	4	135	0.00	30.146 
18:35	42.9	42.9	42.9	46	23.6	2	4	135	0.00	30.146 
18:40	42.6	42.6	42.6	46	23.3	1	4	135	0.00	30.146 
18:45	42.3	42.3	42.3	46	23.0	2	4	90	0.00	30.148 
18:50	42.2	42.2	42.2	47	23.4	2	6	112	0.00	30.148 
18:55	41.9	41.9	41.9	48	23.7	2	3	112	0.00	30.148 
19:00	41.8	41.8	41.8	48	23.6	1	4	112	0.00	30.150 
19:05	41.5	41.5	41.5	49	23.8	2	4	135	0.00	30.150 
19:10	41.2	41.2	41.2	50	24.0	2	5	135	0.00	30.150 
19:15	41.1	41.1	41.1	50	23.9	1	4	112	0.00	30.138 
19:20	40.8	40.8	40.8	51	24.1	1	6	135	0.00	30.138 
19:25	40.5	40.5	40.5	52	24.3	0	2	135	0.00	30.138 
19:30	40.1	40.1	40.1	52	23.9	0	2	135	0.00	30.162 
19:35	39.9	39.9	39.9	52	23.7	1	3	135	0.00	30.162 
19:40	39.9	39.9	39.9	52	23.7	0	2	135	0.00	30.162 
19:45	39.8	39.8	39.8	52	23.6	0	1	135	0.00	30.170 
19:50	39.6	39.6	39.6	53	23.9	0	2	135	0.00	30.170 
19:55	39.3	39.3	39.3	53	23.6	0	1	135	0.00	30.170 
20:00	39.1	39.1	39.1	54	23.9	0	2	135	0.00	30.173 
20:05	38.9	38.9	38.9	54	23.7	0	1	135	0.00	30.173 
20:10	38.8	38.8	38.8	54	23.6	0	1	135	0.00	30.173 
20:15	38.6	38.6	38.6	55	23.8	0	0	---	0.00	30.168 
20:20	38.5	38.5	38.5	55	23.8	0	1	135	0.00	30.168 
20:25	38.3	38.3	38.3	55	23.6	0	0	---	0.00	30.168 
20:30	38.2	38.2	38.2	55	23.5	0	1	135	0.00	30.170 
20:35	38.0	38.0	38.0	55	23.3	0	1	135	0.00	30.170 
20:40	38.0	38.0	38.0	55	23.3	0	0	---	0.00	30.170 
20:45	38.0	38.0	38.0	55	23.3	0	1	135	0.00	30.167 
20:50	38.0	38.0	38.0	55	23.3	0	1	135	0.00	30.167 
20:55	38.0	38.0	38.0	55	23.3	0	1	135	0.00	30.167 
21:00	38.0	38.0	38.0	55	23.3	0	2	135	0.00	30.167 
21:05	38.0	38.0	38.0	55	23.3	0	1	135	0.00	30.167 
21:10	38.0	38.0	38.0	54	22.9	0	1	135	0.00	30.167 
21:15	38.3	38.3	38.3	54	23.1	1	3	135	0.00	30.161 
21:20	38.3	38.3	38.3	54	23.1	0	2	112	0.00	30.161 
21:25	38.5	38.5	38.5	54	23.3	0	3	112	0.00	30.161 
21:30	38.3	38.3	38.3	54	23.1	0	2	112	0.00	30.160 
21:35	38.3	38.3	38.3	54	23.1	1	2	112	0.00	30.160 
21:40	38.3	38.3	38.3	54	23.1	1	4	90	0.00	30.160 
21:45	38.5	38.5	38.5	54	23.3	0	2	90	0.00	30.155 
21:50	38.5	38.5	38.5	54	23.3	1	2	90	0.00	30.155 
21:55	38.5	38.5	38.5	53	22.9	1	2	90	0.00	30.155 
22:00	38.5	38.5	38.5	53	22.9	1	3	112	0.00	30.151 
22:05	38.5	38.5	38.5	53	22.9	1	4	112	0.00	30.151 
22:10	38.5	38.5	38.5	53	22.9	1	3	112	0.00	30.151 
22:15	38.3	38.3	38.3	54	23.1	0	2	112	0.00	30.147 
22:20	38.2	38.2	38.2	54	23.0	0	2	112	0.00	30.147 
22:25	38.0	38.0	38.0	54	22.9	0	2	112	0.00	30.147 
22:30	37.8	37.8	37.8	54	22.7	0	3	112	0.00	30.146 
22:35	37.6	37.6	37.6	55	22.9	0	1	112	0.00	30.146 
22:40	37.3	37.3	37.3	55	22.6	0	2	112	0.00	30.146 
22:45	37.3	37.3	37.3	55	22.6	0	2	112	0.00	30.145 
22:50	37.3	37.3	37.3	55	22.6	1	2	112	0.00	30.145 
22:55	37.3	37.3	37.3	55	22.6	0	1	112	0.00	30.145 
23:00	37.3	37.3	37.3	55	22.6	1	2	112	0.00	30.144 
23:05	37.3	37.3	37.3	55	22.6	0	2	112	0.00	30.144 
23:10	37.3	37.3	37.3	55	22.6	0	3	112	0.00	30.144 
23:15	37.5	37.5	37.5	55	22.8	0	2	270	0.00	30.140 
23:20	37.5	37.5	37.5	55	22.8	0	3	270	0.00	30.140 
23:25	37.5	37.5	37.5	54	22.4	0	2	270	0.00	30.140 
23:30	37.5	37.5	37.5	54	22.4	0	3	270	0.00	30.137 
23:35	37.5	37.5	37.5	55	22.8	0	1	270	0.00	30.137 
23:40	37.5	37.5	37.5	55	22.8	0	2	270	0.00	30.137 
23:45	37.5	37.5	37.5	55	22.8	0	2	270	0.00	30.128 
23:50	37.3	37.3	37.3	55	22.6	0	2	248	0.00	30.128 
23:55	37.5	37.5	37.5	55	22.8	0	2	248	0.00	30.128 

CoCoRaHS
IN-AL-39
A2 Web Hosting
Creative Commons License
GoDaddy
search engine by freefind advanced

loaded 2018-12-19 10:17:58 • last modified 2010-11-18 10:43:29
Privacy PolicyDisclaimer
• wx.awcolley.com is powered by PmWiki v.2002016 •
• all content (unless otherwise noted) © 2018 A W Colley